Time;durP1;ratioP1;P1;durP2;ratioP2;P2;SDS_P1;SDS_P2;PMS_P1;PMS_P2;Temp;Humidity;BMP_temperature;BMP_pressure;BME280_temperature;BME280_humidity;BME280_pressure;Samples;Min_cycle;Max_cycle;Signal;HPM_P1;HPM_P2
2022/12/26 00:02:25;;;;;;;1.90;1.75;;;24.20;55.40;;;;;;4991480;28;20217;-40
2022/12/26 00:04:56;;;;;;;3.92;2.25;;;24.20;55.40;;;;;;4991350;28;20233;-39
2022/12/26 00:07:26;;;;;;;2.22;2.03;;;24.20;55.40;;;;;;4991914;28;20662;-39
2022/12/26 00:09:57;;;;;;;2.50;2.15;;;24.20;55.30;;;;;;4991235;28;20201;-39
2022/12/26 00:12:28;;;;;;;2.20;2.00;;;24.20;55.30;;;;;;4992291;28;20234;-39
2022/12/26 00:15:00;;;;;;;3.08;2.20;;;24.30;55.40;;;;;;4992395;28;20201;-41
2022/12/26 00:17:31;;;;;;;2.65;2.10;;;24.30;55.50;;;;;;4991882;28;20202;-41
2022/12/26 00:20:02;;;;;;;2.38;2.08;;;24.30;55.40;;;;;;4991579;28;20197;-43
2022/12/26 00:22:32;;;;;;;3.40;2.17;;;24.40;55.50;;;;;;4991798;28;20217;-42
2022/12/26 00:25:03;;;;;;;2.63;2.00;;;24.40;55.50;;;;;;4992152;28;20771;-46
2022/12/26 00:27:35;;;;;;;2.90;2.10;;;24.50;55.60;;;;;;4991610;28;20210;-40
2022/12/26 00:30:08;;;;;;;2.20;2.00;;;24.50;55.60;;;;;;4991258;28;20565;-43
2022/12/26 00:32:39;;;;;;;2.13;1.92;;;24.60;55.60;;;;;;4992246;28;20229;-40
2022/12/26 00:35:10;;;;;;;3.08;1.95;;;24.60;55.50;;;;;;4991513;28;20206;-39
2022/12/26 00:37:41;;;;;;;3.60;2.40;;;24.60;55.50;;;;;;4991767;28;20194;-39
2022/12/26 00:40:13;;;;;;;2.38;2.17;;;24.60;55.50;;;;;;4992644;28;20199;-49
2022/12/26 00:42:43;;;;;;;2.38;2.17;;;24.70;55.60;;;;;;5001044;28;20217;-43
2022/12/26 00:45:16;;;;;;;4.70;2.25;;;24.70;55.50;;;;;;5000591;28;20237;-40
2022/12/26 00:47:47;;;;;;;3.47;2.42;;;24.70;55.50;;;;;;4996880;28;20197;-40
2022/12/26 00:50:17;;;;;;;3.80;2.42;;;24.70;55.50;;;;;;5000310;28;20688;-53
2022/12/26 00:52:48;;;;;;;2.35;2.08;;;24.80;55.60;;;;;;4997112;28;20212;-47
2022/12/26 00:55:19;;;;;;;2.47;2.28;;;24.80;55.60;;;;;;4998456;28;20198;-46
2022/12/26 00:57:49;;;;;;;2.58;2.20;;;24.90;55.60;;;;;;4995790;28;20205;-53
2022/12/26 01:00:22;;;;;;;2.10;1.90;;;24.90;55.60;;;;;;5001217;28;20665;-50
2022/12/26 01:02:53;;;;;;;2.67;2.10;;;24.90;55.60;;;;;;4998187;28;20193;-41
2022/12/26 01:05:23;;;;;;;3.60;2.10;;;24.90;55.50;;;;;;5000847;28;20872;-42
2022/12/26 01:07:54;;;;;;;2.67;2.00;;;24.90;55.40;;;;;;5000069;28;20621;-44
2022/12/26 01:10:25;;;;;;;2.40;2.20;;;25.00;55.40;;;;;;4998121;28;20198;-40
2022/12/26 01:12:56;;;;;;;2.83;2.17;;;25.00;55.40;;;;;;5000060;28;20551;-46
2022/12/26 01:15:28;;;;;;;2.20;2.00;;;25.00;55.40;;;;;;4995864;28;20202;-46
2022/12/26 01:18:00;;;;;;;2.35;1.92;;;25.10;55.50;;;;;;4999332;28;20189;-46
2022/12/26 01:20:31;;;;;;;2.35;1.92;;;25.10;55.40;;;;;;4996748;28;20263;-51
2022/12/26 01:23:01;;;;;;;3.15;2.05;;;25.10;55.40;;;;;;4999063;28;20850;-56
2022/12/26 01:25:32;;;;;;;2.45;2.10;;;25.20;55.40;;;;;;5000380;28;20225;-41
2022/12/26 01:28:04;;;;;;;2.40;2.20;;;25.20;55.40;;;;;;5001298;28;20189;-40
2022/12/26 01:30:37;;;;;;;2.67;2.03;;;25.20;55.40;;;;;;5000362;28;20196;-39
2022/12/26 01:33:08;;;;;;;2.63;1.85;;;25.20;55.40;;;;;;4996974;28;20204;-40
2022/12/26 01:35:38;;;;;;;2.72;2.00;;;25.30;55.50;;;;;;4999670;28;20197;-43
2022/12/26 01:38:09;;;;;;;2.55;2.08;;;25.30;55.40;;;;;;4997181;28;20563;-40
2022/12/26 01:40:43;;;;;;;1.88;1.77;;;25.30;55.40;;;;;;4999428;28;20204;-40
2022/12/26 01:43:15;;;;;;;2.63;1.90;;;25.30;55.30;;;;;;4996863;28;20197;-42
2022/12/26 01:45:51;;;;;;;2.92;1.83;;;25.40;55.40;;;;;;5000915;28;20224;-42
2022/12/26 01:48:24;;;;;;;3.13;1.90;;;25.40;55.30;;;;;;5001008;28;20323;-39
2022/12/26 01:51:00;;;;;;;2.50;1.70;;;25.40;55.30;;;;;;4998578;28;20206;-39
2022/12/26 01:53:34;;;;;;;2.90;2.00;;;25.50;55.30;;;;;;4997849;28;20193;-40
2022/12/26 01:56:10;;;;;;;2.38;1.98;;;25.50;55.20;;;;;;4999811;28;20196;-43
2022/12/26 01:58:45;;;;;;;2.67;1.70;;;25.50;55.20;;;;;;5001463;28;20189;-43
2022/12/26 02:01:18;;;;;;;2.78;2.05;;;25.50;55.20;;;;;;4991576;28;20244;-48
2022/12/26 02:06:51;;;;;;;2.83;1.80;;;25.50;55.10;;;;;;4929991;29;20190;-42
2022/12/26 02:09:22;;;;;;;3.70;2.00;;;25.50;55.00;;;;;;4930351;29;20211;-40
2022/12/26 02:11:58;;;;;;;3.42;1.80;;;25.60;55.20;;;;;;4959947;28;20225;-42
2022/12/26 02:14:29;;;;;;;4.88;1.90;;;25.60;55.20;;;;;;4990791;28;20220;-40
2022/12/26 02:17:01;;;;;;;2.05;1.85;;;25.60;55.20;;;;;;4990995;28;20206;-40
2022/12/26 02:19:41;;;;;;;3.22;1.63;;;25.60;55.20;;;;;;4991092;28;20197;-40
2022/12/26 02:22:45;;;;;;;2.05;1.60;;;25.70;55.20;;;;;;4990372;28;20582;-40
2022/12/26 02:25:43;;;;;;;3.33;1.85;;;25.70;55.20;;;;;;4940875;28;20221;-39
2022/12/26 02:28:44;;;;;;;3.03;1.90;;;25.80;55.10;;;;;;4990974;28;20582;-43
2022/12/26 02:31:23;;;;;;;2.97;2.13;;;25.80;55.10;;;;;;4987028;28;20214;-42
2022/12/26 02:34:06;;;;;;;3.15;1.52;;;25.80;55.60;;;;;;4994714;28;20241;-46
2022/12/26 02:36:50;;;;;;;2.97;1.67;;;25.90;55.10;;;;;;4994591;28;20213;-42
2022/12/26 02:39:34;;;;;;;3.47;1.70;;;25.80;55.00;;;;;;4994758;28;20197;-39
2022/12/26 02:42:16;;;;;;;2.30;1.75;;;25.90;55.00;;;;;;4994245;28;20279;-40
2022/12/26 02:47:52;;;;;;;2.60;1.75;;;25.90;54.90;;;;;;4993991;28;20200;-46
2022/12/26 03:13:25;;;;;;;1.90;1.70;;;26.20;54.60;;;;;;4993792;28;20216;-39
2022/12/26 03:18:48;;;;;;;3.13;1.50;;;26.20;54.50;;;;;;4994105;28;20204;-39
2022/12/26 03:21:24;;;;;;;3.97;1.63;;;26.20;54.60;;;;;;4994002;28;20222;-42
2022/12/26 03:23:58;;;;;;;2.83;1.85;;;26.30;54.60;;;;;;4994031;28;20756;-44
2022/12/26 03:26:39;;;;;;;1.67;1.35;;;26.30;54.60;;;;;;4993367;28;20205;-46
2022/12/26 03:31:59;;;;;;;2.42;1.50;;;26.40;54.60;;;;;;4993526;28;20217;-40
2022/12/26 03:34:30;;;;;;;2.15;1.48;;;26.30;54.50;;;;;;4993458;28;20202;-41
2022/12/26 03:37:30;;;;;;;2.05;1.50;;;26.40;54.50;;;;;;4993697;28;20201;-40
2022/12/26 04:20:26;;;;;;;2.15;1.70;;;26.90;54.20;;;;;;4992819;28;20228;-42
2022/12/26 04:45:49;;;;;;;2.45;1.70;;;27.10;53.80;;;;;;4992027;28;20645;-45
2022/12/26 04:51:09;;;;;;;4.15;1.83;;;27.10;53.80;;;;;;4983131;28;20209;-42
2022/12/26 04:53:39;;;;;;;2.42;1.33;;;27.20;53.90;;;;;;4991986;28;20676;-41
2022/12/26 04:56:12;;;;;;;3.58;2.00;;;27.20;53.80;;;;;;4992151;28;20205;-44
2022/12/26 04:58:43;;;;;;;7.40;1.98;;;27.20;53.90;;;;;;4992159;28;20197;-41
2022/12/26 05:09:35;;;;;;;2.70;1.80;;;27.30;53.70;;;;;;4972481;28;20674;-45
2022/12/26 05:12:07;;;;;;;2.72;1.58;;;27.30;53.80;;;;;;4977370;28;20230;-47
2022/12/26 05:14:38;;;;;;;4.20;1.85;;;27.30;53.70;;;;;;4991683;28;20781;-45
2022/12/26 05:31:12;;;;;;;2.85;1.48;;;27.40;53.60;;;;;;4991525;28;20706;-44
2022/12/26 05:36:35;;;;;;;4.30;1.73;;;27.50;53.50;;;;;;4991107;28;20711;-40
2022/12/26 05:39:06;;;;;;;2.33;1.60;;;27.40;53.50;;;;;;4990915;28;20201;-45
2022/12/26 05:41:37;;;;;;;2.80;1.60;;;27.50;53.60;;;;;;4990835;28;20221;-42
2022/12/26 05:44:07;;;;;;;3.08;1.77;;;27.50;53.50;;;;;;4986717;28;20197;-40
2022/12/26 05:46:38;;;;;;;4.18;1.65;;;27.50;53.40;;;;;;4991323;28;20198;-49
2022/12/26 05:49:11;;;;;;;3.42;1.70;;;27.50;53.40;;;;;;4990712;28;20197;-44
2022/12/26 05:51:42;;;;;;;2.92;1.77;;;27.50;53.30;;;;;;4990842;28;20217;-46
2022/12/26 05:54:13;;;;;;;3.58;2.10;;;27.50;53.20;;;;;;4990748;28;20208;-40
2022/12/26 05:56:43;;;;;;;3.63;1.50;;;27.50;53.20;;;;;;4989918;28;20190;-40
2022/12/26 05:59:14;;;;;;;3.08;1.67;;;27.50;53.20;;;;;;4998089;28;20668;-40
2022/12/26 06:01:45;;;;;;;2.00;1.15;;;27.50;53.30;;;;;;5004826;28;20229;-41
2022/12/26 06:04:17;;;;;;;3.10;1.77;;;27.50;53.30;;;;;;4990654;28;20198;-39
2022/12/26 06:06:48;;;;;;;3.15;1.73;;;27.50;53.30;;;;;;4991578;28;20205;-40
2022/12/26 06:09:19;;;;;;;2.42;1.60;;;27.50;53.30;;;;;;4994333;28;20197;-40
2022/12/26 06:11:54;;;;;;;2.58;1.60;;;27.50;53.20;;;;;;4994268;28;20228;-41
2022/12/26 06:14:25;;;;;;;3.08;1.65;;;27.60;53.30;;;;;;4993763;28;20232;-40
2022/12/26 06:16:55;;;;;;;3.35;1.83;;;27.60;53.30;;;;;;4994317;28;20194;-40
2022/12/26 06:19:31;;;;;;;4.40;2.50;;;27.60;53.30;;;;;;4994412;28;20564;-39
2022/12/26 06:22:01;;;;;;;6.63;2.53;;;27.60;53.30;;;;;;4993980;28;20364;-39
2022/12/26 06:24:37;;;;;;;8.35;3.22;;;27.60;53.30;;;;;;4992645;28;20197;-39
2022/12/26 06:27:07;;;;;;;7.45;3.30;;;27.60;53.10;;;;;;4994090;28;20213;-40
2022/12/26 06:29:38;;;;;;;5.68;2.80;;;27.60;53.10;;;;;;4995269;28;20268;-40
2022/12/26 06:32:10;;;;;;;4.55;2.90;;;27.60;53.00;;;;;;4993143;28;20232;-44
2022/12/26 06:34:51;;;;;;;6.35;3.30;;;27.60;53.00;;;;;;4993665;28;20662;-43
2022/12/26 06:37:21;;;;;;;5.90;3.10;;;27.70;53.00;;;;;;4993716;28;20200;-40
2022/12/26 06:39:52;;;;;;;5.50;2.90;;;27.70;53.00;;;;;;4993832;28;20561;-40
2022/12/26 06:42:23;;;;;;;4.93;2.60;;;27.70;52.90;;;;;;4993815;28;20252;-39
2022/12/26 06:44:53;;;;;;;4.75;2.60;;;27.70;52.90;;;;;;4993577;28;20221;-40
2022/12/26 06:47:24;;;;;;;4.10;2.38;;;27.70;52.90;;;;;;4993908;28;20201;-40
2022/12/26 06:49:56;;;;;;;6.63;2.90;;;27.70;53.10;;;;;;4993673;28;20197;-44
2022/12/26 06:52:27;;;;;;;5.22;2.67;;;27.70;52.90;;;;;;4994405;28;20226;-40
2022/12/26 06:54:58;;;;;;;4.65;2.50;;;27.80;53.00;;;;;;4994178;28;20202;-40
2022/12/26 06:57:29;;;;;;;6.88;2.60;;;27.80;53.00;;;;;;4993798;28;20252;-39
2022/12/26 06:59:59;;;;;;;4.15;2.78;;;27.80;53.00;;;;;;4993859;28;20692;-40
2022/12/26 07:02:30;;;;;;;4.28;2.65;;;27.80;52.90;;;;;;4993866;28;20221;-41
2022/12/26 07:05:03;;;;;;;3.03;2.13;;;27.80;52.80;;;;;;4993700;28;20217;-39
2022/12/26 07:07:33;;;;;;;3.83;2.10;;;27.80;52.80;;;;;;4993767;28;20201;-39
2022/12/26 07:10:04;;;;;;;4.97;2.67;;;27.80;52.80;;;;;;4993976;28;20227;-45
2022/12/26 07:12:37;;;;;;;3.88;2.38;;;27.80;52.80;;;;;;4993505;28;20233;-39
2022/12/26 07:15:08;;;;;;;5.10;2.45;;;27.70;52.70;;;;;;4993537;28;20201;-43
2022/12/26 07:17:39;;;;;;;5.85;2.42;;;27.70;52.80;;;;;;4992440;28;20189;-42
2022/12/26 07:20:13;;;;;;;5.35;2.88;;;27.70;52.80;;;;;;4993474;28;20202;-39
2022/12/26 07:22:44;;;;;;;4.70;2.63;;;27.70;52.80;;;;;;4994092;28;20236;-40
2022/12/26 07:25:14;;;;;;;4.35;2.65;;;27.70;52.80;;;;;;4993776;28;20228;-39
2022/12/26 07:27:45;;;;;;;5.40;2.38;;;27.70;52.80;;;;;;4993852;28;20206;-40
2022/12/26 07:30:16;;;;;;;4.97;2.58;;;27.70;52.80;;;;;;4994134;28;20213;-42
2022/12/26 07:32:47;;;;;;;4.00;2.08;;;27.60;52.80;;;;;;4993772;28;20229;-41
2022/12/26 07:35:19;;;;;;;4.88;2.63;;;27.60;52.80;;;;;;4993836;28;20206;-40
2022/12/26 07:37:50;;;;;;;3.55;2.13;;;27.60;52.80;;;;;;4993099;28;20193;-39
2022/12/26 07:40:21;;;;;;;6.35;2.60;;;27.60;52.80;;;;;;4992733;28;20891;-41
2022/12/26 07:42:54;;;;;;;3.33;2.20;;;27.60;52.70;;;;;;4992881;28;20592;-40
2022/12/26 07:45:24;;;;;;;4.47;2.30;;;27.50;52.70;;;;;;4993245;28;20755;-39
2022/12/26 07:47:56;;;;;;;3.90;2.22;;;27.50;52.80;;;;;;4993279;28;20185;-39
2022/12/26 07:50:29;;;;;;;5.00;2.30;;;27.50;52.80;;;;;;4993310;28;20198;-40
2022/12/26 07:53:01;;;;;;;4.82;2.47;;;27.50;52.80;;;;;;4992856;28;20198;-39
2022/12/26 07:55:32;;;;;;;4.32;2.17;;;27.50;52.80;;;;;;4992708;28;20209;-39
2022/12/26 07:58:03;;;;;;;3.97;2.20;;;27.40;52.80;;;;;;4992574;28;20665;-39
2022/12/26 08:00:33;;;;;;;3.70;2.00;;;27.40;52.80;;;;;;4992740;28;20362;-40
2022/12/26 08:03:04;;;;;;;2.85;2.00;;;27.40;52.90;;;;;;4993170;28;20208;-39
2022/12/26 08:05:37;;;;;;;4.70;2.33;;;27.40;52.90;;;;;;4993088;28;20221;-39
2022/12/26 08:08:08;;;;;;;3.13;2.00;;;27.30;52.80;;;;;;4993350;28;20229;-41
2022/12/26 08:10:38;;;;;;;4.65;2.00;;;27.30;52.90;;;;;;4993188;28;20234;-39
2022/12/26 08:13:09;;;;;;;3.83;2.10;;;27.30;52.90;;;;;;4992910;28;20666;-39
2022/12/26 08:15:41;;;;;;;3.17;1.77;;;27.30;52.90;;;;;;4992726;28;20213;-39
2022/12/26 08:18:44;;;;;;;3.75;2.20;;;27.30;52.90;;;;;;4992554;28;20654;-39
2022/12/26 08:21:16;;;;;;;3.30;1.95;;;27.30;52.90;;;;;;4992634;28;20221;-39
2022/12/26 08:23:53;;;;;;;3.55;2.00;;;27.20;52.90;;;;;;4992678;28;20213;-40
2022/12/26 08:26:23;;;;;;;3.80;1.80;;;27.20;52.90;;;;;;4991865;28;20225;-39
2022/12/26 08:28:56;;;;;;;3.65;2.00;;;27.20;52.90;;;;;;4991868;28;20193;-39
2022/12/26 08:31:27;;;;;;;4.63;2.10;;;27.10;52.90;;;;;;4992501;28;20221;-39
2022/12/26 08:33:58;;;;;;;3.22;2.17;;;27.10;52.90;;;;;;4992506;28;20209;-39
2022/12/26 08:36:31;;;;;;;5.40;1.92;;;27.10;53.00;;;;;;4999614;28;20196;-39
2022/12/26 08:39:02;;;;;;;6.70;2.08;;;27.10;53.00;;;;;;5012097;28;20296;-40
2022/12/26 08:41:33;;;;;;;2.83;1.98;;;27.00;53.00;;;;;;5007034;28;20217;-39
2022/12/26 08:44:03;;;;;;;3.05;2.00;;;27.00;53.00;;;;;;4992302;28;20312;-40
2022/12/26 08:46:35;;;;;;;2.45;1.58;;;27.00;53.00;;;;;;4992044;28;20774;-43
2022/12/26 08:49:06;;;;;;;5.82;2.00;;;27.00;53.00;;;;;;4991883;28;20202;-45
2022/12/26 08:51:38;;;;;;;3.05;1.80;;;27.00;52.90;;;;;;4991879;28;20221;-46
2022/12/26 08:54:09;;;;;;;6.25;2.42;;;26.90;52.80;;;;;;4992115;28;20285;-44
2022/12/26 08:56:40;;;;;;;4.15;1.52;;;26.90;52.80;;;;;;4991834;28;20194;-40
2022/12/26 08:59:11;;;;;;;6.07;2.08;;;26.90;52.80;;;;;;4987331;28;20649;-42
2022/12/26 09:01:43;;;;;;;4.55;2.15;;;26.80;52.80;;;;;;4990460;28;20230;-43
2022/12/26 09:04:13;;;;;;;4.60;1.70;;;26.80;52.90;;;;;;4991628;28;20809;-39
2022/12/26 09:06:46;;;;;;;3.40;1.73;;;26.70;53.00;;;;;;4990394;28;20232;-39
2022/12/26 09:09:17;;;;;;;4.85;1.65;;;26.70;53.00;;;;;;4989332;28;20220;-39
2022/12/26 09:11:48;;;;;;;3.85;1.58;;;26.70;53.10;;;;;;4990133;28;20229;-39
2022/12/26 09:14:18;;;;;;;2.75;1.50;;;26.60;53.10;;;;;;4990991;28;20207;-39
2022/12/26 09:16:50;;;;;;;2.38;1.30;;;26.60;53.10;;;;;;4991194;28;20692;-40
2022/12/26 09:19:21;;;;;;;4.05;1.80;;;26.60;53.20;;;;;;4990304;28;20234;-40
2022/12/26 09:22:49;;;;;;;3.17;1.35;;;26.60;53.10;;;;;;4991363;28;20809;-39
2022/12/26 09:24:45;;;;;;;2.53;1.52;;;26.60;53.10;;;;;;4990736;28;20240;-40
2022/12/26 09:27:15;;;;;;;2.95;1.65;;;26.50;53.00;;;;;;4991049;28;20720;-41
2022/12/26 09:29:46;;;;;;;3.03;1.70;;;26.50;53.00;;;;;;4990593;28;20198;-39
2022/12/26 09:32:17;;;;;;;3.40;1.63;;;26.50;53.10;;;;;;4990524;28;20235;-39
2022/12/26 09:34:49;;;;;;;2.88;1.67;;;26.50;53.10;;;;;;4989969;28;20201;-40
2022/12/26 09:37:22;;;;;;;3.40;1.70;;;26.40;53.10;;;;;;4990250;28;20209;-39
2022/12/26 09:39:53;;;;;;;3.50;1.70;;;26.40;53.10;;;;;;4990187;28;20193;-40
2022/12/26 09:42:31;;;;;;;5.70;1.40;;;26.40;53.10;;;;;;4990374;28;20221;-39
2022/12/26 09:45:08;;;;;;;3.17;1.77;;;26.40;53.10;;;;;;4990726;28;20291;-39
2022/12/26 09:47:42;;;;;;;3.95;1.70;;;26.30;53.20;;;;;;4990616;28;20232;-39
2022/12/26 09:50:16;;;;;;;4.15;1.65;;;26.30;53.20;;;;;;4990671;28;20204;-40
2022/12/26 09:52:52;;;;;;;3.65;1.60;;;26.30;53.20;;;;;;4990504;28;20577;-40
2022/12/26 09:55:40;;;;;;;3.92;1.40;;;26.20;53.10;;;;;;4990679;28;20209;-39
2022/12/26 09:58:21;;;;;;;3.35;1.55;;;26.20;53.10;;;;;;4990603;28;20197;-39
2022/12/26 10:00:55;;;;;;;2.95;1.52;;;26.20;53.10;;;;;;4991010;28;20225;-39
2022/12/26 10:03:26;;;;;;;3.35;1.45;;;26.20;53.10;;;;;;4989921;28;20288;-40
2022/12/26 10:06:16;;;;;;;2.95;1.50;;;26.20;53.10;;;;;;4991093;28;20305;-41
2022/12/26 10:09:08;;;;;;;3.05;1.88;;;26.20;53.10;;;;;;4973381;28;20548;-50
2022/12/26 10:11:49;;;;;;;4.50;1.60;;;26.10;53.00;;;;;;4990642;28;20221;-40
2022/12/26 10:14:29;;;;;;;2.53;1.67;;;26.10;53.00;;;;;;4989932;28;20197;-42
2022/12/26 10:17:04;;;;;;;2.13;1.30;;;26.10;53.00;;;;;;4990631;28;20573;-40
2022/12/26 10:19:51;;;;;;;2.47;1.45;;;26.00;53.00;;;;;;4990423;28;20673;-45
2022/12/26 10:22:43;;;;;;;3.33;1.55;;;26.00;53.10;;;;;;4990492;28;20217;-41
2022/12/26 10:25:22;;;;;;;3.38;1.52;;;26.00;53.10;;;;;;4990272;28;20218;-41
2022/12/26 10:27:54;;;;;;;3.15;1.42;;;25.90;53.00;;;;;;4990684;28;20276;-40
2022/12/26 10:30:27;;;;;;;2.65;1.70;;;25.90;53.20;;;;;;4990384;28;20197;-42
2022/12/26 10:33:02;;;;;;;3.28;1.55;;;25.90;53.20;;;;;;4990722;28;20209;-41
2022/12/26 10:35:36;;;;;;;3.53;1.55;;;25.90;53.20;;;;;;4990321;28;20197;-42
2022/12/26 10:38:13;;;;;;;4.03;1.30;;;25.90;53.20;;;;;;4990433;28;20201;-44
2022/12/26 10:40:49;;;;;;;2.58;1.48;;;25.90;53.20;;;;;;4990183;28;20556;-44
2022/12/26 10:43:27;;;;;;;2.53;1.20;;;25.80;53.20;;;;;;4988859;28;20284;-39
2022/12/26 10:46:21;;;;;;;2.50;1.50;;;25.80;53.10;;;;;;4989448;28;20197;-45
2022/12/26 10:48:52;;;;;;;2.97;1.50;;;25.80;53.10;;;;;;4990742;28;20197;-39
2022/12/26 10:51:23;;;;;;;2.97;1.67;;;25.80;53.10;;;;;;4989990;28;20221;-41
2022/12/26 10:53:55;;;;;;;2.00;1.17;;;25.80;53.20;;;;;;4992325;28;20201;-41
2022/12/26 10:56:28;;;;;;;2.90;1.48;;;25.70;53.20;;;;;;4994061;28;20209;-41
2022/12/26 10:59:05;;;;;;;2.15;1.25;;;25.70;53.20;;;;;;4993470;28;20205;-39
2022/12/26 11:01:38;;;;;;;3.53;1.40;;;25.70;53.20;;;;;;4993833;28;20213;-39
2022/12/26 11:04:17;;;;;;;3.30;1.60;;;25.60;53.20;;;;;;4992314;28;20332;-39
2022/12/26 11:06:51;;;;;;;2.90;1.30;;;25.60;53.30;;;;;;4992928;28;20229;-40
2022/12/26 11:09:42;;;;;;;3.17;1.30;;;25.60;53.30;;;;;;4993274;28;20233;-39
2022/12/26 11:12:26;;;;;;;2.22;1.42;;;25.60;53.30;;;;;;4990469;28;20236;-46
2022/12/26 11:15:01;;;;;;;2.75;1.45;;;25.60;53.30;;;;;;4992741;28;20224;-39
2022/12/26 11:17:35;;;;;;;3.45;1.50;;;25.60;53.30;;;;;;4993216;28;20293;-39
2022/12/26 11:20:25;;;;;;;3.15;1.30;;;25.50;53.30;;;;;;4992960;28;20201;-39
2022/12/26 11:22:56;;;;;;;2.38;1.20;;;25.50;53.20;;;;;;4993215;28;20657;-39
2022/12/26 11:25:29;;;;;;;2.05;1.20;;;25.50;53.30;;;;;;4992924;28;20208;-39
2022/12/26 11:28:23;;;;;;;1.70;1.20;;;25.50;53.30;;;;;;4992414;28;20331;-39
2022/12/26 11:30:54;;;;;;;2.55;1.15;;;25.50;53.30;;;;;;4992958;28;20381;-42
2022/12/26 11:33:29;;;;;;;1.50;1.10;;;25.40;53.20;;;;;;4993256;28;20542;-41
2022/12/26 11:36:10;;;;;;;1.92;1.38;;;25.40;53.30;;;;;;4993742;28;20197;-41
2022/12/26 11:38:50;;;;;;;3.30;1.40;;;25.40;53.40;;;;;;4992726;28;20202;-38
2022/12/26 11:41:38;;;;;;;3.03;1.50;;;25.30;53.40;;;;;;4993665;28;20221;-39
2022/12/26 11:44:20;;;;;;;3.33;1.48;;;25.30;53.30;;;;;;4993262;28;20201;-39
2022/12/26 11:46:56;;;;;;;2.60;1.27;;;25.30;53.30;;;;;;4992639;28;20767;-39
2022/12/26 11:49:34;;;;;;;2.00;1.17;;;25.30;53.40;;;;;;4993098;28;20204;-39
2022/12/26 11:52:26;;;;;;;1.77;1.30;;;25.30;53.40;;;;;;4993245;28;20260;-42
2022/12/26 11:54:57;;;;;;;2.13;1.20;;;25.30;53.40;;;;;;4993420;28;20208;-39
2022/12/26 11:57:31;;;;;;;2.55;1.20;;;25.20;53.30;;;;;;4997477;28;20204;-39
2022/12/26 12:00:18;;;;;;;2.03;1.23;;;25.20;53.40;;;;;;4999296;28;20197;-39
2022/12/26 12:02:50;;;;;;;3.10;1.30;;;25.20;53.40;;;;;;5001125;28;20205;-40
2022/12/26 12:05:34;;;;;;;2.65;1.30;;;25.20;53.40;;;;;;4997548;28;20205;-39
2022/12/26 12:08:34;;;;;;;1.58;1.10;;;25.20;53.40;;;;;;4999840;28;20217;-40
2022/12/26 12:11:15;;;;;;;2.05;1.30;;;25.10;53.40;;;;;;5001825;28;20303;-40
2022/12/26 12:14:14;;;;;;;2.78;1.60;;;25.10;53.40;;;;;;4999043;28;20207;-41
2022/12/26 12:16:58;;;;;;;2.58;1.20;;;25.10;53.50;;;;;;4999230;28;20200;-40
2022/12/26 12:19:39;;;;;;;2.15;1.30;;;25.10;53.60;;;;;;4998537;28;20284;-42
2022/12/26 12:22:32;;;;;;;3.63;1.38;;;25.00;53.50;;;;;;5000660;28;20287;-40
2022/12/26 12:25:32;;;;;;;2.15;1.23;;;25.10;53.60;;;;;;5001502;28;20200;-40
2022/12/26 12:28:13;;;;;;;2.60;1.50;;;25.00;53.50;;;;;;4998344;28;20228;-40
2022/12/26 12:30:51;;;;;;;2.60;1.30;;;25.00;53.50;;;;;;4999109;28;20292;-45
2022/12/26 12:33:35;;;;;;;1.92;1.20;;;25.00;53.50;;;;;;4998971;28;20288;-39
2022/12/26 12:36:12;;;;;;;2.65;1.20;;;25.00;53.50;;;;;;4999706;28;20220;-39
2022/12/26 12:39:02;;;;;;;1.92;1.35;;;24.90;53.50;;;;;;4998116;28;20272;-44
2022/12/26 12:41:59;;;;;;;3.17;1.55;;;24.90;53.60;;;;;;5000229;28;20222;-39
2022/12/26 12:44:41;;;;;;;3.53;1.30;;;24.90;53.60;;;;;;4993633;28;20201;-39
2022/12/26 12:47:20;;;;;;;1.27;1.17;;;24.90;53.60;;;;;;5001127;28;20676;-40
2022/12/26 12:50:03;;;;;;;1.75;1.13;;;24.90;53.70;;;;;;5000373;28;20189;-40
2022/12/26 12:52:52;;;;;;;2.45;1.20;;;24.90;53.70;;;;;;5001316;28;20216;-40
2022/12/26 12:55:46;;;;;;;1.77;1.30;;;24.90;53.80;;;;;;4998260;28;20859;-40
2022/12/26 12:58:24;;;;;;;1.58;1.20;;;24.80;53.70;;;;;;4994066;28;20189;-41
2022/12/26 13:00:58;;;;;;;1.83;1.30;;;24.80;53.70;;;;;;4999497;28;20228;-39
2022/12/26 13:03:34;;;;;;;1.50;1.13;;;24.80;53.70;;;;;;5000369;28;20204;-39
2022/12/26 13:06:11;;;;;;;2.50;1.30;;;24.80;53.70;;;;;;4998867;28;20193;-40
2022/12/26 13:08:45;;;;;;;3.13;1.38;;;24.80;53.70;;;;;;4997638;28;20807;-43
2022/12/26 13:11:22;;;;;;;2.63;1.20;;;24.70;53.70;;;;;;4999255;28;20226;-42
2022/12/26 13:13:57;;;;;;;1.90;1.10;;;24.70;53.70;;;;;;4998898;28;20200;-41
2022/12/26 13:16:34;;;;;;;2.03;1.10;;;24.70;53.80;;;;;;4999043;28;20193;-39
2022/12/26 13:19:14;;;;;;;1.75;1.10;;;24.70;53.80;;;;;;4998672;28;20185;-40
2022/12/26 13:21:49;;;;;;;2.60;1.40;;;24.70;53.80;;;;;;4998746;28;20213;-39
2022/12/26 13:24:25;;;;;;;2.33;1.20;;;24.70;53.80;;;;;;4997123;28;20284;-39
2022/12/26 13:27:02;;;;;;;2.60;1.20;;;24.70;53.90;;;;;;4999334;28;20799;-39
2022/12/26 13:29:39;;;;;;;2.38;1.10;;;24.70;53.90;;;;;;4999488;28;20197;-39
2022/12/26 13:32:22;;;;;;;1.88;1.23;;;24.60;53.90;;;;;;4999714;28;20216;-41
2022/12/26 13:34:54;;;;;;;3.17;1.40;;;24.60;53.80;;;;;;5000613;28;20196;-41
2022/12/26 13:37:57;;;;;;;2.15;1.20;;;24.60;53.80;;;;;;4998438;28;20208;-39
2022/12/26 13:40:32;;;;;;;4.07;1.40;;;24.60;53.80;;;;;;4961076;28;20197;-39
2022/12/26 13:45:58;;;;;;;1.75;1.20;;;24.60;53.80;;;;;;5001232;28;20289;-39
2022/12/26 13:49:03;;;;;;;1.88;1.10;;;24.60;53.90;;;;;;5000273;28;20229;-39
2022/12/26 13:51:58;;;;;;;3.28;1.30;;;24.50;53.80;;;;;;4993967;28;20217;-39
2022/12/26 13:54:32;;;;;;;3.13;1.10;;;24.50;53.90;;;;;;4998485;28;20198;-39
2022/12/26 13:57:29;;;;;;;1.95;1.10;;;24.50;53.90;;;;;;4996920;28;20193;-40
2022/12/26 14:00:20;;;;;;;1.83;1.20;;;24.50;53.90;;;;;;4996076;28;20194;-39
2022/12/26 14:03:17;;;;;;;2.08;1.10;;;24.50;54.00;;;;;;4999418;28;20224;-39
2022/12/26 14:06:07;;;;;;;2.03;1.00;;;24.50;54.00;;;;;;4998749;28;20560;-39
2022/12/26 14:08:47;;;;;;;2.08;1.00;;;24.40;54.00;;;;;;5000634;28;20216;-40
2022/12/26 14:11:38;;;;;;;2.17;1.10;;;24.50;54.00;;;;;;5001163;28;20299;-39
2022/12/26 14:14:21;;;;;;;1.52;1.10;;;24.40;53.90;;;;;;4986525;28;20291;-39
2022/12/26 14:16:56;;;;;;;1.85;1.05;;;24.50;54.00;;;;;;4971602;28;20206;-39
2022/12/26 14:19:43;;;;;;;1.30;1.02;;;24.40;53.90;;;;;;4971741;28;20240;-43
2022/12/26 14:22:22;;;;;;;1.90;1.27;;;24.40;54.00;;;;;;4971844;28;20218;-39
2022/12/26 14:25:04;;;;;;;1.95;1.10;;;24.40;54.00;;;;;;4971741;28;20249;-39
2022/12/26 14:27:43;;;;;;;1.65;1.20;;;24.30;54.00;;;;;;4990441;28;20221;-39
2022/12/26 14:30:35;;;;;;;2.03;1.20;;;24.40;54.00;;;;;;4995323;28;20208;-42
2022/12/26 14:33:25;;;;;;;2.50;1.52;;;24.30;54.00;;;;;;4995054;28;20201;-39
2022/12/26 14:36:06;;;;;;;1.85;1.30;;;24.30;54.00;;;;;;4994652;28;20529;-39
2022/12/26 14:38:46;;;;;;;2.00;1.17;;;24.30;54.10;;;;;;4994272;28;20204;-40
2022/12/26 14:44:17;;;;;;;2.00;1.10;;;24.30;54.10;;;;;;4994963;28;20665;-39
2022/12/26 14:47:03;;;;;;;1.67;1.00;;;24.30;54.10;;;;;;4994881;28;20202;-39
2022/12/26 14:49:42;;;;;;;2.00;1.25;;;24.20;54.00;;;;;;4991194;28;20192;-39
2022/12/26 14:52:43;;;;;;;2.15;1.20;;;24.30;54.10;;;;;;4994378;28;20276;-39
2022/12/26 14:55:48;;;;;;;2.08;1.13;;;24.30;54.10;;;;;;4994451;28;20276;-39
2022/12/26 14:58:43;;;;;;;1.23;0.98;;;24.30;54.10;;;;;;4994139;28;20193;-39
2022/12/26 15:02:01;;;;;;;2.47;1.30;;;24.20;54.10;;;;;;4990020;28;20222;-39
2022/12/26 15:05:02;;;;;;;2.53;1.10;;;24.20;54.10;;;;;;4992799;28;20204;-39
2022/12/26 15:08:27;;;;;;;2.03;1.38;;;24.20;54.10;;;;;;4989529;28;20228;-46
2022/12/26 15:11:26;;;;;;;2.42;1.00;;;24.20;54.20;;;;;;4914545;29;20216;-39
2022/12/26 15:14:42;;;;;;;2.03;1.00;;;24.10;54.10;;;;;;4884767;29;20226;-39
2022/12/26 15:17:25;;;;;;;1.77;1.30;;;24.10;54.20;;;;;;4974211;28;20204;-39
2022/12/26 15:20:43;;;;;;;2.15;0.80;;;24.10;54.20;;;;;;4974411;28;20198;-40
2022/12/26 15:23:38;;;;;;;2.85;1.20;;;24.00;54.20;;;;;;4970766;28;20846;-39
2022/12/26 15:26:49;;;;;;;1.73;1.00;;;24.10;54.20;;;;;;4974374;28;20243;-40
2022/12/26 15:30:02;;;;;;;1.80;1.00;;;24.10;54.20;;;;;;4974432;28;20230;-40
2022/12/26 15:32:41;;;;;;;1.52;0.88;;;24.10;54.20;;;;;;4970067;28;20225;-44
2022/12/26 15:35:20;;;;;;;1.80;1.13;;;24.10;54.20;;;;;;4974476;28;20198;-39
2022/12/26 15:38:15;;;;;;;1.98;1.02;;;24.00;54.20;;;;;;4973970;28;20669;-39
2022/12/26 15:40:55;;;;;;;2.33;1.17;;;24.00;54.20;;;;;;4973583;28;20202;-40
2022/12/26 15:43:54;;;;;;;1.48;1.10;;;24.00;54.50;;;;;;4989236;28;20208;-39
2022/12/26 15:46:31;;;;;;;1.90;0.95;;;24.00;54.30;;;;;;4992901;28;20676;-39
2022/12/26 15:49:21;;;;;;;2.88;1.10;;;23.90;54.30;;;;;;4992946;28;20231;-43
2022/12/26 15:52:00;;;;;;;2.38;1.20;;;23.90;54.40;;;;;;4992925;28;20252;-39
2022/12/26 15:54:54;;;;;;;1.60;1.20;;;23.90;54.30;;;;;;4992791;28;20672;-39